createdAt,value
2019-01-11T00:00:18.255Z,7.67
2019-01-11T00:02:47.181Z,7.59
2019-01-11T00:05:14.441Z,7.52
2019-01-11T00:07:41.374Z,7.48
2019-01-11T00:10:08.622Z,7.49
2019-01-11T00:12:35.786Z,7.50
2019-01-11T00:15:02.677Z,7.56
2019-01-11T00:17:29.637Z,7.47
2019-01-11T00:20:03.273Z,7.34
2019-01-11T00:22:25.402Z,7.35
2019-01-11T00:24:52.356Z,7.41
2019-01-11T00:27:19.611Z,7.50
2019-01-11T00:29:46.578Z,7.52
2019-01-11T00:32:13.530Z,7.50
2019-01-11T00:34:40.417Z,7.44
2019-01-11T00:37:07.704Z,7.43
2019-01-11T00:39:34.694Z,7.40
2019-01-11T00:42:01.997Z,7.52
2019-01-11T00:44:28.918Z,7.35
2019-01-11T00:46:55.855Z,7.21
2019-01-11T00:49:23.031Z,7.42
2019-01-11T00:51:49.913Z,7.33
2019-01-11T00:54:17.236Z,7.42
2019-01-11T00:56:44.992Z,7.30
2019-01-11T00:59:12.145Z,7.39
2019-01-11T01:01:39.019Z,7.41
2019-01-11T01:04:05.935Z,7.29
2019-01-11T01:06:33.294Z,7.41
2019-01-11T01:09:00.545Z,7.52
2019-01-11T01:11:29.330Z,7.36
2019-01-11T01:13:56.585Z,7.27
2019-01-11T01:16:23.740Z,7.10
2019-01-11T01:18:51.003Z,7.16
2019-01-11T01:21:18.250Z,7.31
2019-01-11T01:23:45.502Z,7.20
2019-01-11T01:26:12.494Z,7.03
2019-01-11T01:28:39.801Z,7.07
2019-01-11T01:31:07.057Z,7.11
2019-01-11T01:33:34.018Z,7.03
2019-01-11T01:36:00.965Z,6.94
2019-01-11T01:38:27.912Z,6.94
2019-01-11T01:40:55.164Z,7.00
2019-01-11T01:43:22.091Z,6.96
2019-01-11T01:45:49.055Z,7.02
2019-01-11T01:48:16.016Z,6.98
2019-01-11T01:50:43.347Z,6.93
2019-01-11T01:53:10.287Z,6.95
2019-01-11T01:55:37.534Z,7.06
2019-01-11T01:58:04.786Z,7.21
2019-01-11T02:00:31.808Z,6.92
2019-01-11T02:02:58.989Z,6.95
2019-01-11T02:05:26.235Z,7.04
2019-01-11T02:07:53.177Z,7.07
2019-01-11T02:10:20.069Z,7.03
2019-01-11T02:12:47.021Z,7.11
2019-01-11T02:15:14.333Z,7.00
2019-01-11T02:17:41.278Z,6.89
2019-01-11T02:20:08.219Z,7.02
2019-01-11T02:22:35.350Z,7.04
2019-01-11T02:25:02.259Z,7.07
2019-01-11T02:27:29.217Z,7.19
2019-01-11T02:29:56.433Z,7.15
2019-01-11T02:32:23.590Z,7.24
2019-01-11T02:34:50.619Z,7.10
2019-01-11T02:37:17.823Z,7.14
2019-01-11T02:39:44.747Z,7.05
2019-01-11T02:42:11.695Z,7.03
2019-01-11T02:44:38.698Z,7.21
2019-01-11T02:47:05.883Z,7.02
2019-01-11T02:49:39.744Z,7.06
2019-01-11T02:52:01.856Z,6.99
2019-01-11T02:54:28.760Z,6.96
2019-01-11T02:56:55.728Z,6.78
2019-01-11T02:59:22.873Z,6.77
2019-01-11T03:01:49.771Z,6.95
2019-01-11T03:04:16.963Z,7.11
2019-01-11T03:06:44.100Z,7.00
2019-01-11T03:09:11.238Z,6.95
2019-01-11T03:11:38.494Z,6.92
2019-01-11T03:14:05.455Z,6.80
2019-01-11T03:16:32.323Z,6.77
2019-01-11T03:18:59.191Z,6.82
2019-01-11T03:21:26.058Z,6.86
2019-01-11T03:23:52.941Z,6.93
2019-01-11T03:26:21.260Z,6.93
2019-01-11T03:28:48.536Z,6.84
2019-01-11T03:31:15.775Z,6.81
2019-01-11T03:33:42.777Z,6.85
2019-01-11T03:36:09.729Z,6.84
2019-01-11T03:38:36.629Z,6.87
2019-01-11T03:41:03.605Z,6.89
2019-01-11T03:43:30.537Z,7.06
2019-01-11T03:45:57.433Z,6.94
2019-01-11T03:48:24.602Z,6.98
2019-01-11T03:50:51.575Z,6.86
2019-01-11T03:53:18.528Z,6.84
2019-01-11T03:55:45.444Z,6.95
2019-01-11T03:58:12.618Z,7.04
2019-01-11T04:00:40.328Z,6.99
2019-01-11T04:03:07.495Z,6.95
2019-01-11T04:05:34.469Z,6.99
2019-01-11T04:08:01.406Z,6.98
2019-01-11T04:10:28.349Z,7.10
2019-01-11T04:12:55.248Z,6.99
2019-01-11T04:15:22.206Z,6.90
2019-01-11T04:17:49.178Z,6.95
2019-01-11T04:20:16.140Z,6.87
2019-01-11T04:22:43.331Z,7.07
2019-01-11T04:25:10.504Z,6.95
2019-01-11T04:27:37.720Z,6.96
2019-01-11T04:30:04.705Z,6.99
2019-01-11T04:32:31.652Z,6.94
2019-01-11T04:34:58.543Z,6.95
2019-01-11T04:37:25.431Z,7.00
2019-01-11T04:39:52.305Z,7.13
2019-01-11T04:42:19.277Z,7.20
2019-01-11T04:44:46.234Z,6.96
2019-01-11T04:47:13.487Z,7.05
2019-01-11T04:49:40.429Z,7.06
2019-01-11T04:52:07.753Z,7.09
2019-01-11T04:54:35.061Z,7.16
2019-01-11T04:57:02.052Z,7.03
2019-01-11T04:59:29.009Z,7.01
2019-01-11T05:01:55.969Z,7.02
2019-01-11T05:04:23.211Z,6.99
2019-01-11T05:06:50.177Z,7.03
2019-01-11T05:09:17.128Z,7.05
2019-01-11T05:11:44.105Z,6.91
2019-01-11T05:14:10.969Z,6.84
2019-01-11T05:16:39.550Z,6.97
2019-01-11T05:19:06.414Z,6.87
2019-01-11T05:21:33.664Z,6.95
2019-01-11T05:24:01.046Z,6.96
2019-01-11T05:26:28.071Z,6.93
2019-01-11T05:28:55.022Z,6.88
2019-01-11T05:31:22.404Z,6.89
2019-01-11T05:33:49.744Z,6.91
2019-01-11T05:36:16.701Z,7.01
2019-01-11T05:38:43.928Z,6.91
2019-01-11T05:41:11.512Z,6.75
2019-01-11T05:43:38.715Z,6.71
2019-01-11T05:46:06.261Z,6.81
2019-01-11T05:48:33.472Z,6.82
2019-01-11T05:51:00.521Z,6.80
2019-01-11T05:53:27.703Z,6.86
2019-01-11T05:55:56.349Z,6.83
2019-01-11T05:58:23.282Z,6.96
2019-01-11T06:00:50.210Z,6.85
2019-01-11T06:03:17.183Z,6.82
2019-01-11T06:05:44.118Z,6.89
2019-01-11T06:08:10.994Z,6.85
2019-01-11T06:10:37.940Z,6.90
2019-01-11T06:13:04.848Z,7.01
2019-01-11T06:15:31.738Z,6.90
2019-01-11T06:17:59.129Z,6.75
2019-01-11T06:20:30.163Z,6.72
2019-01-11T06:22:54.806Z,6.85
2019-01-11T06:25:21.763Z,6.96
2019-01-11T06:27:48.790Z,6.73
2019-01-11T06:30:16.123Z,6.83
2019-01-11T06:32:43.274Z,6.82
2019-01-11T06:35:10.415Z,6.90
2019-01-11T06:37:37.375Z,6.85
2019-01-11T06:40:04.633Z,6.84
2019-01-11T06:42:31.806Z,6.84
2019-01-11T06:44:59.048Z,6.77
2019-01-11T06:47:27.619Z,6.83
2019-01-11T06:49:56.465Z,6.99
2019-01-11T06:52:23.740Z,6.87
2019-01-11T06:54:50.716Z,6.75
2019-01-11T06:57:17.708Z,6.72
2019-01-11T06:59:44.925Z,6.88
2019-01-11T07:02:11.818Z,7.04
2019-01-11T07:04:39.050Z,6.92
2019-01-11T07:07:06.280Z,7.01
2019-01-11T07:09:33.299Z,6.91
2019-01-11T07:12:00.209Z,6.87
2019-01-11T07:14:27.216Z,7.05
2019-01-11T07:16:54.229Z,7.12
2019-01-11T07:19:21.170Z,7.02
2019-01-11T07:21:48.151Z,6.86
2019-01-11T07:24:15.147Z,6.84
2019-01-11T07:26:42.040Z,6.91
2019-01-11T07:29:08.937Z,6.90
2019-01-11T07:31:35.909Z,6.94
2019-01-11T07:34:02.892Z,6.79
2019-01-11T07:36:29.913Z,6.89
2019-01-11T07:38:56.864Z,7.16
2019-01-11T07:41:23.811Z,7.14
2019-01-11T07:43:52.476Z,6.94
2019-01-11T07:46:19.344Z,6.96
2019-01-11T07:48:46.266Z,6.87
2019-01-11T07:51:13.229Z,7.03
2019-01-11T07:53:40.498Z,7.07
2019-01-11T07:56:08.539Z,7.08
2019-01-11T07:58:35.685Z,7.01
2019-01-11T08:01:02.898Z,7.01
2019-01-11T08:03:29.789Z,6.96
2019-01-11T08:05:57.000Z,7.21
2019-01-11T08:08:24.201Z,7.25
2019-01-11T08:10:51.092Z,7.20
2019-01-11T08:13:18.506Z,7.19
2019-01-11T08:15:45.642Z,7.24
2019-01-11T08:18:12.543Z,7.19
2019-01-11T08:20:39.436Z,7.33
2019-01-11T08:23:06.662Z,7.27
2019-01-11T08:25:33.541Z,7.27
2019-01-11T08:28:00.491Z,7.20
2019-01-11T08:30:27.452Z,7.41
2019-01-11T08:32:54.409Z,7.26
2019-01-11T08:35:21.370Z,7.27
2019-01-11T08:37:48.562Z,7.29
2019-01-11T08:40:15.478Z,7.45
2019-01-11T08:42:42.437Z,7.37
2019-01-11T08:45:09.411Z,7.63
2019-01-11T08:47:36.647Z,7.47
2019-01-11T08:50:03.788Z,7.54
2019-01-11T08:52:30.951Z,7.37
2019-01-11T08:54:58.111Z,7.40
2019-01-11T08:57:25.105Z,7.44
2019-01-11T08:59:52.418Z,7.48
2019-01-11T09:02:19.302Z,7.52
2019-01-11T09:04:46.173Z,7.48
2019-01-11T09:07:13.346Z,7.45
2019-01-11T09:09:40.237Z,7.57
2019-01-11T09:12:07.398Z,7.70
2019-01-11T09:14:34.289Z,7.68
2019-01-11T09:17:01.228Z,7.60
2019-01-11T09:19:28.435Z,7.52
2019-01-11T09:21:55.670Z,7.56
2019-01-11T09:24:22.643Z,7.57
2019-01-11T09:26:49.643Z,7.60
2019-01-11T09:29:16.646Z,7.41
2019-01-11T09:31:43.604Z,7.86
2019-01-11T09:34:10.568Z,7.86
2019-01-11T09:36:37.589Z,7.85
2019-01-11T09:39:04.556Z,7.55
2019-01-11T09:41:31.834Z,7.73
2019-01-11T09:43:58.713Z,7.78
2019-01-11T09:46:25.613Z,7.77
2019-01-11T09:48:52.964Z,7.75
2019-01-11T09:51:20.896Z,8.00
2019-01-11T09:53:48.137Z,8.13
2019-01-11T09:56:15.376Z,8.18
2019-01-11T09:58:42.523Z,8.02
2019-01-11T10:01:09.848Z,8.20
2019-01-11T10:03:37.093Z,8.23
2019-01-11T10:06:03.985Z,8.49
2019-01-11T10:08:31.185Z,8.46
2019-01-11T10:10:58.351Z,8.44
2019-01-11T10:13:25.274Z,8.33
2019-01-11T10:15:52.260Z,8.31
2019-01-11T10:18:19.345Z,8.44
2019-01-11T10:20:46.285Z,8.39
2019-01-11T10:23:13.222Z,8.42
2019-01-11T10:25:40.197Z,8.64
2019-01-11T10:28:07.593Z,8.42
2019-01-11T10:30:34.588Z,8.47
2019-01-11T10:33:01.724Z,8.49
2019-01-11T10:35:28.597Z,8.45
2019-01-11T10:37:55.501Z,8.60
2019-01-11T10:40:22.464Z,8.59
2019-01-11T10:42:49.427Z,8.63
2019-01-11T10:45:16.618Z,8.51
2019-01-11T10:47:43.958Z,8.46
2019-01-11T10:50:10.896Z,8.53
2019-01-11T10:52:38.165Z,8.31
2019-01-11T10:55:05.221Z,8.90
2019-01-11T10:57:32.469Z,8.71
2019-01-11T10:59:59.399Z,8.63
2019-01-11T11:02:26.652Z,8.88
2019-01-11T11:04:53.582Z,8.00
2019-01-11T11:07:20.980Z,8.77
2019-01-11T11:09:48.228Z,8.91
2019-01-11T11:12:15.476Z,9.04
2019-01-11T11:14:42.679Z,8.88
2019-01-11T11:17:09.886Z,8.71
2019-01-11T11:19:36.776Z,8.75
2019-01-11T11:22:03.733Z,8.70
2019-01-11T11:24:31.017Z,8.92
2019-01-11T11:26:58.974Z,9.05
2019-01-11T11:29:25.860Z,9.03
2019-01-11T11:31:53.065Z,8.93
2019-01-11T11:34:19.954Z,9.06
2019-01-11T11:36:47.485Z,9.08
2019-01-11T11:39:14.593Z,8.87
2019-01-11T11:41:41.747Z,8.80
2019-01-11T11:44:08.735Z,8.85
2019-01-11T11:49:11.800Z,8.93
2019-01-11T11:51:41.507Z,8.94
2019-01-11T11:54:07.975Z,9.08
2019-01-11T11:56:35.247Z,8.96
2019-01-11T11:59:02.285Z,8.83
2019-01-11T12:01:29.152Z,8.80
2019-01-11T12:03:56.369Z,8.76
2019-01-11T12:06:23.256Z,8.73
2019-01-11T12:08:50.491Z,8.59
2019-01-11T12:11:17.710Z,8.60
2019-01-11T12:13:44.652Z,8.65
2019-01-11T12:16:11.625Z,8.73
2019-01-11T12:18:38.757Z,8.90
2019-01-11T12:21:06.080Z,8.63
2019-01-11T12:23:33.024Z,8.69
2019-01-11T12:26:00.317Z,8.75
2019-01-11T12:28:27.457Z,8.63
2019-01-11T12:30:54.319Z,8.67
2019-01-11T12:33:21.271Z,8.66
2019-01-11T12:35:48.610Z,8.60
2019-01-11T12:38:15.796Z,9.08
2019-01-11T12:40:43.111Z,8.68
2019-01-11T12:43:10.372Z,8.69
2019-01-11T12:45:37.273Z,8.74
2019-01-11T12:48:04.248Z,8.68
2019-01-11T12:50:31.455Z,8.10
2019-01-11T12:52:58.494Z,8.22
2019-01-11T12:55:25.427Z,8.58
2019-01-11T12:57:52.554Z,8.53
2019-01-11T13:00:19.441Z,8.65
2019-01-11T13:02:48.396Z,8.80
2019-01-11T13:05:15.287Z,8.72
2019-01-11T13:07:42.236Z,8.63
2019-01-11T13:10:09.445Z,8.60
2019-01-11T13:12:37.844Z,8.50
2019-01-11T13:15:05.199Z,8.62
2019-01-11T13:17:32.718Z,8.50
2019-01-11T13:20:00.005Z,8.42
2019-01-11T13:22:27.975Z,8.29
2019-01-11T13:24:55.304Z,8.36
2019-01-11T13:27:22.576Z,8.37
2019-01-11T13:29:49.532Z,8.23
2019-01-11T13:32:16.506Z,8.50
2019-01-11T13:34:43.373Z,8.36
2019-01-11T13:37:10.327Z,8.30
2019-01-11T13:39:38.854Z,8.46
2019-01-11T13:42:05.841Z,8.35
2019-01-11T13:44:33.862Z,8.48
2019-01-11T13:47:00.825Z,8.46
2019-01-11T13:49:28.270Z,8.51
2019-01-11T13:51:55.257Z,8.58
2019-01-11T13:54:22.500Z,8.58
2019-01-11T13:56:49.371Z,8.57
2019-01-11T13:59:16.275Z,8.75
2019-01-11T14:01:43.616Z,8.49
2019-01-11T14:04:10.537Z,8.67
2019-01-11T14:06:37.470Z,8.76
2019-01-11T14:09:04.387Z,8.46
2019-01-11T14:11:33.684Z,8.40
2019-01-11T14:14:00.641Z,8.36
2019-01-11T14:16:27.935Z,8.48
2019-01-11T14:18:56.826Z,8.44
2019-01-11T14:21:23.698Z,8.36
2019-01-11T14:23:50.895Z,8.39
2019-01-11T14:26:18.142Z,8.45
2019-01-11T14:28:45.651Z,8.49
2019-01-11T14:31:12.896Z,8.65
2019-01-11T14:33:39.960Z,8.45
2019-01-11T14:36:10.272Z,8.55
2019-01-11T14:38:45.905Z,8.62
2019-01-11T14:41:12.932Z,8.69
2019-01-11T14:43:40.139Z,8.58
2019-01-11T14:46:07.070Z,8.64
2019-01-11T14:48:33.972Z,8.40
2019-01-11T14:51:00.967Z,8.51
2019-01-11T14:53:27.853Z,8.77
2019-01-11T14:55:56.322Z,8.84
2019-01-11T14:58:28.755Z,8.60
2019-01-11T15:00:51.857Z,8.67
2019-01-11T15:03:18.836Z,8.61
2019-01-11T15:05:50.851Z,8.75
2019-01-11T15:08:17.802Z,8.85
2019-01-11T15:10:45.350Z,8.70
2019-01-11T15:13:12.339Z,8.81
2019-01-11T15:15:40.636Z,8.80
2019-01-11T15:18:07.575Z,8.92
2019-01-11T15:20:34.577Z,9.08
2019-01-11T15:23:01.822Z,8.94
2019-01-11T15:25:29.075Z,8.78
2019-01-11T15:27:56.223Z,8.85
2019-01-11T15:30:23.281Z,8.80
2019-01-11T15:32:50.245Z,9.01
2019-01-11T15:35:17.860Z,9.07
2019-01-11T15:37:45.205Z,8.85
2019-01-11T15:40:12.182Z,8.79
2019-01-11T15:42:39.253Z,8.99
2019-01-11T15:45:06.239Z,8.70
2019-01-11T15:47:33.281Z,8.63
2019-01-11T15:50:00.347Z,8.70
2019-01-11T15:52:33.127Z,8.83
2019-01-11T15:54:56.360Z,8.82
2019-01-11T15:57:23.650Z,8.80
2019-01-11T15:59:50.617Z,8.62
2019-01-11T16:02:17.619Z,8.66
2019-01-11T16:04:44.584Z,8.81
2019-01-11T16:07:11.527Z,8.74
2019-01-11T16:09:38.509Z,8.84
2019-01-11T16:12:05.824Z,8.63
2019-01-11T16:14:32.763Z,8.70
2019-01-11T16:16:59.786Z,8.44
2019-01-11T16:19:26.912Z,8.62
2019-01-11T16:21:54.264Z,8.63
2019-01-11T16:24:21.698Z,8.46
2019-01-11T16:26:48.676Z,8.62
2019-01-11T16:29:17.666Z,8.58
2019-01-11T16:31:49.937Z,8.95
2019-01-11T16:34:18.369Z,8.88
2019-01-11T16:36:48.982Z,8.63
2019-01-11T16:39:15.961Z,9.07
2019-01-11T16:41:43.011Z,9.06
2019-01-11T16:44:09.957Z,8.86
2019-01-11T16:46:37.203Z,8.72
2019-01-11T16:49:04.209Z,8.70
2019-01-11T16:51:31.312Z,8.72
2019-01-11T16:53:58.320Z,8.71
2019-01-11T16:56:25.235Z,8.94
2019-01-11T16:58:54.956Z,9.17
2019-01-11T17:01:22.230Z,9.08
2019-01-11T17:03:49.242Z,8.86
2019-01-11T17:06:16.260Z,8.89
2019-01-11T17:08:43.537Z,9.05
2019-01-11T17:11:10.451Z,9.54
2019-01-11T17:13:40.692Z,9.00
2019-01-11T17:16:06.366Z,9.42
2019-01-11T17:18:33.621Z,9.48
2019-01-11T17:21:00.895Z,9.31
2019-01-11T17:23:27.928Z,9.21
2019-01-11T17:25:54.841Z,9.76
2019-01-11T17:28:23.291Z,9.47
2019-01-11T17:30:52.436Z,9.23
2019-01-11T17:33:19.415Z,9.30
2019-01-11T17:35:46.374Z,9.24
2019-01-11T17:38:13.303Z,9.08
2019-01-11T17:40:40.572Z,9.21
2019-01-11T17:43:08.619Z,9.21
2019-01-11T17:45:36.905Z,9.22
2019-01-11T17:48:04.920Z,9.24
2019-01-11T17:50:34.875Z,9.30
2019-01-11T17:53:01.797Z,9.09
2019-01-11T17:55:31.235Z,9.21
2019-01-11T17:57:58.797Z,9.28
2019-01-11T18:02:58.272Z,9.36
2019-01-11T18:05:25.729Z,9.35
2019-01-11T18:07:59.472Z,9.14
2019-01-11T18:10:26.671Z,9.55
2019-01-11T18:12:54.612Z,9.43
2019-01-11T18:15:21.564Z,9.45
2019-01-11T18:18:05.832Z,9.43
2019-01-11T18:20:34.252Z,9.47
2019-01-11T18:23:06.869Z,9.71
2019-01-11T18:25:31.114Z,9.67
2019-01-11T18:27:58.110Z,9.64
2019-01-11T18:30:25.363Z,9.79
2019-01-11T18:32:52.904Z,9.82
2019-01-11T18:35:20.327Z,9.70
2019-01-11T18:37:47.271Z,9.65
2019-01-11T18:40:14.362Z,9.40
2019-01-11T18:42:45.181Z,9.52
2019-01-11T18:45:12.226Z,9.65
2019-01-11T18:47:39.708Z,9.79
2019-01-11T18:50:06.752Z,9.75
2019-01-11T18:52:35.220Z,9.81
2019-01-11T18:55:02.204Z,9.59
2019-01-11T18:57:29.388Z,9.54
2019-01-11T18:59:56.765Z,9.58
2019-01-11T19:02:24.899Z,9.60
2019-01-11T19:04:51.825Z,9.64
2019-01-11T19:07:19.267Z,9.66
2019-01-11T19:09:46.493Z,9.82
2019-01-11T19:12:15.104Z,9.89
2019-01-11T19:14:42.169Z,9.71
2019-01-11T19:17:09.403Z,9.81
2019-01-11T19:19:39.226Z,9.80
2019-01-11T19:22:06.475Z,9.84
2019-01-11T19:24:33.628Z,9.59
2019-01-11T19:27:00.707Z,9.72
2019-01-11T19:29:27.989Z,9.65
2019-01-11T19:31:54.897Z,9.86
2019-01-11T19:34:22.641Z,9.93
2019-01-11T19:36:49.954Z,9.86
2019-01-11T19:39:17.072Z,10.17
2019-01-11T19:41:44.258Z,9.91
2019-01-11T19:44:11.580Z,9.92
2019-01-11T19:46:50.930Z,9.77
2019-01-11T19:49:19.462Z,9.76
2019-01-11T19:51:47.681Z,9.98
2019-01-11T19:54:14.998Z,9.93
2019-01-11T19:56:42.285Z,10.06
2019-01-11T19:59:09.556Z,10.05
2019-01-11T20:01:36.962Z,9.94
2019-01-11T20:04:04.346Z,10.36
2019-01-11T20:06:31.320Z,10.10
2019-01-11T20:08:58.303Z,10.00
2019-01-11T20:11:25.211Z,9.96
2019-01-11T20:13:52.912Z,10.01
2019-01-11T20:16:20.002Z,9.94
2019-01-11T20:18:46.910Z,9.89
2019-01-11T20:21:13.863Z,10.18
2019-01-11T20:23:40.854Z,10.14
2019-01-11T20:26:07.787Z,9.97
2019-01-11T20:28:35.216Z,9.98
2019-01-11T20:33:35.895Z,10.16
2019-01-11T20:36:03.000Z,10.15
2019-01-11T20:38:30.008Z,10.13
2019-01-11T20:40:57.298Z,10.24
2019-01-11T20:43:24.633Z,10.08
2019-01-11T20:45:52.013Z,9.97
2019-01-11T20:48:19.013Z,10.07
2019-01-11T20:50:46.104Z,10.10
2019-01-11T20:53:13.082Z,10.23
2019-01-11T20:55:40.332Z,10.33
2019-01-11T20:58:07.710Z,10.21
2019-01-11T21:00:35.243Z,10.21
2019-01-11T21:03:13.919Z,10.38
2019-01-11T21:05:40.964Z,10.32
2019-01-11T21:08:11.409Z,10.10
2019-01-11T21:10:38.736Z,10.35
2019-01-11T21:13:09.564Z,10.29
2019-01-11T21:15:36.648Z,10.20
2019-01-11T21:18:03.682Z,10.24
2019-01-11T21:20:33.485Z,10.22
2019-01-11T21:23:00.474Z,10.34
2019-01-11T21:25:28.597Z,10.43
2019-01-11T21:27:55.586Z,10.43
2019-01-11T21:30:22.678Z,10.31
2019-01-11T21:32:49.632Z,10.51
2019-01-11T21:35:16.668Z,10.55
2019-01-11T21:37:43.659Z,10.51
2019-01-11T21:40:11.266Z,10.52
2019-01-11T21:45:17.645Z,10.39
2019-01-11T21:47:44.612Z,10.30
2019-01-11T21:50:12.072Z,10.35
2019-01-11T21:52:39.160Z,10.43
2019-01-11T21:55:06.441Z,10.44
2019-01-11T21:57:33.894Z,10.50
2019-01-11T22:00:00.910Z,10.72
2019-01-11T22:02:28.199Z,10.74
2019-01-11T22:04:55.459Z,10.68
2019-01-11T22:07:23.475Z,10.38
2019-01-11T22:09:51.222Z,10.50
2019-01-11T22:12:18.662Z,10.49
2019-01-11T22:14:46.014Z,10.62
2019-01-11T22:17:13.965Z,10.64
2019-01-11T22:19:40.921Z,10.61
2019-01-11T22:22:08.182Z,10.58
2019-01-11T22:24:43.579Z,10.66
2019-01-11T22:27:10.725Z,10.71
2019-01-11T22:29:37.661Z,10.62
2019-01-11T22:32:05.071Z,10.59
2019-01-11T22:34:32.012Z,10.78
2019-01-11T22:36:59.328Z,10.62
2019-01-11T22:39:26.322Z,10.55
2019-01-11T22:41:53.754Z,10.55
2019-01-11T22:44:20.736Z,10.36
2019-01-11T22:46:48.050Z,10.40
2019-01-11T22:49:14.938Z,10.66
2019-01-11T22:51:41.870Z,10.68
2019-01-11T22:56:48.286Z,10.52
2019-01-11T22:59:15.180Z,10.40
2019-01-11T23:01:43.551Z,10.65
2019-01-11T23:04:10.913Z,10.64
2019-01-11T23:06:38.161Z,10.55
2019-01-11T23:09:05.394Z,10.77
2019-01-11T23:11:32.798Z,10.81
2019-01-11T23:13:59.765Z,10.64
2019-01-11T23:16:27.054Z,10.65
2019-01-11T23:18:54.317Z,10.79
2019-01-11T23:21:21.286Z,10.79
2019-01-11T23:23:48.270Z,10.80
2019-01-11T23:26:15.798Z,10.83
2019-01-11T23:28:42.750Z,10.65
2019-01-11T23:31:09.672Z,10.73
2019-01-11T23:33:36.901Z,10.78
2019-01-11T23:36:06.449Z,10.77
2019-01-11T23:38:33.396Z,10.87
2019-01-11T23:41:00.540Z,10.66
2019-01-11T23:43:30.163Z,10.59
2019-01-11T23:45:57.310Z,10.75
2019-01-11T23:48:25.199Z,10.95
2019-01-11T23:50:52.493Z,10.94
2019-01-11T23:53:19.460Z,10.79
2019-01-11T23:55:46.707Z,11.04
2019-01-11T23:58:13.609Z,10.93
